sensor_id;sensor_type;location;lat;lon;timestamp;P1;durP1;ratioP1;P2;durP2;ratioP2
21438;SDS011;10880;50.302;18.736;2022-07-05T00:01:31;0.88;;;0.88;;
21438;SDS011;10880;50.302;18.736;2022-07-05T00:03:57;0.80;;;0.80;;
21438;SDS011;10880;50.302;18.736;2022-07-05T00:06:24;0.97;;;0.93;;
21438;SDS011;10880;50.302;18.736;2022-07-05T00:08:50;0.90;;;0.90;;
21438;SDS011;10880;50.302;18.736;2022-07-05T00:11:17;0.80;;;0.80;;
21438;SDS011;10880;50.302;18.736;2022-07-05T00:13:43;1.00;;;1.00;;
21438;SDS011;10880;50.302;18.736;2022-07-05T00:16:09;0.90;;;0.90;;
21438;SDS011;10880;50.302;18.736;2022-07-05T00:18:36;0.80;;;0.80;;
21438;SDS011;10880;50.302;18.736;2022-07-05T00:21:02;0.70;;;0.70;;
21438;SDS011;10880;50.302;18.736;2022-07-05T00:23:28;0.80;;;0.80;;
21438;SDS011;10880;50.302;18.736;2022-07-05T00:25:55;0.93;;;0.80;;
21438;SDS011;10880;50.302;18.736;2022-07-05T00:28:21;0.90;;;0.90;;
21438;SDS011;10880;50.302;18.736;2022-07-05T00:30:48;1.38;;;1.27;;
21438;SDS011;10880;50.302;18.736;2022-07-05T00:33:17;0.90;;;0.90;;
21438;SDS011;10880;50.302;18.736;2022-07-05T00:35:43;0.80;;;0.80;;
21438;SDS011;10880;50.302;18.736;2022-07-05T00:38:10;0.80;;;0.80;;
21438;SDS011;10880;50.302;18.736;2022-07-05T00:40:36;0.80;;;0.80;;
21438;SDS011;10880;50.302;18.736;2022-07-05T00:43:03;0.80;;;0.80;;
21438;SDS011;10880;50.302;18.736;2022-07-05T00:45:30;0.90;;;0.90;;
21438;SDS011;10880;50.302;18.736;2022-07-05T00:47:56;1.13;;;1.00;;
21438;SDS011;10880;50.302;18.736;2022-07-05T00:50:23;1.10;;;1.00;;
21438;SDS011;10880;50.302;18.736;2022-07-05T00:52:52;0.90;;;0.90;;
21438;SDS011;10880;50.302;18.736;2022-07-05T00:55:20;0.90;;;0.90;;
21438;SDS011;10880;50.302;18.736;2022-07-05T00:57:46;0.90;;;0.90;;
21438;SDS011;10880;50.302;18.736;2022-07-05T01:00:16;0.90;;;0.90;;
21438;SDS011;10880;50.302;18.736;2022-07-05T01:02:43;0.90;;;0.90;;
21438;SDS011;10880;50.302;18.736;2022-07-05T01:05:09;1.10;;;1.10;;
21438;SDS011;10880;50.302;18.736;2022-07-05T01:07:38;0.90;;;0.90;;
21438;SDS011;10880;50.302;18.736;2022-07-05T01:10:06;1.00;;;1.00;;
21438;SDS011;10880;50.302;18.736;2022-07-05T01:12:37;0.80;;;0.80;;
21438;SDS011;10880;50.302;18.736;2022-07-05T01:15:06;0.90;;;0.90;;
21438;SDS011;10880;50.302;18.736;2022-07-05T01:17:34;1.10;;;1.10;;
21438;SDS011;10880;50.302;18.736;2022-07-05T01:20:06;1.03;;;1.00;;
21438;SDS011;10880;50.302;18.736;2022-07-05T01:22:56;0.90;;;0.90;;
21438;SDS011;10880;50.302;18.736;2022-07-05T01:25:23;1.00;;;1.00;;
21438;SDS011;10880;50.302;18.736;2022-07-05T01:27:51;1.10;;;1.00;;
21438;SDS011;10880;50.302;18.736;2022-07-05T01:30:19;0.90;;;0.90;;
21438;SDS011;10880;50.302;18.736;2022-07-05T01:32:48;0.97;;;0.90;;
21438;SDS011;10880;50.302;18.736;2022-07-05T01:35:16;0.80;;;0.80;;
21438;SDS011;10880;50.302;18.736;2022-07-05T01:37:47;1.10;;;1.00;;
21438;SDS011;10880;50.302;18.736;2022-07-05T01:40:17;0.80;;;0.80;;
21438;SDS011;10880;50.302;18.736;2022-07-05T01:42:48;1.17;;;1.00;;
21438;SDS011;10880;50.302;18.736;2022-07-05T01:45:16;1.33;;;1.00;;
21438;SDS011;10880;50.302;18.736;2022-07-05T01:48:02;1.23;;;1.13;;
21438;SDS011;10880;50.302;18.736;2022-07-05T01:50:33;1.00;;;1.00;;
21438;SDS011;10880;50.302;18.736;2022-07-05T01:53:03;1.00;;;1.00;;
21438;SDS011;10880;50.302;18.736;2022-07-05T01:55:30;1.30;;;1.20;;
21438;SDS011;10880;50.302;18.736;2022-07-05T01:57:57;1.30;;;1.03;;
21438;SDS011;10880;50.302;18.736;2022-07-05T02:00:24;1.83;;;1.20;;
21438;SDS011;10880;50.302;18.736;2022-07-05T02:02:50;1.00;;;1.00;;
21438;SDS011;10880;50.302;18.736;2022-07-05T02:05:20;1.20;;;1.10;;
21438;SDS011;10880;50.302;18.736;2022-07-05T02:07:47;1.20;;;1.10;;
21438;SDS011;10880;50.302;18.736;2022-07-05T02:10:15;0.97;;;0.90;;
21438;SDS011;10880;50.302;18.736;2022-07-05T02:12:42;2.50;;;1.17;;
21438;SDS011;10880;50.302;18.736;2022-07-05T02:15:09;1.23;;;1.00;;
21438;SDS011;10880;50.302;18.736;2022-07-05T02:17:37;1.00;;;1.00;;
21438;SDS011;10880;50.302;18.736;2022-07-05T02:20:05;1.00;;;1.00;;
21438;SDS011;10880;50.302;18.736;2022-07-05T02:22:32;1.00;;;1.00;;
21438;SDS011;10880;50.302;18.736;2022-07-05T02:25:05;1.00;;;0.90;;
21438;SDS011;10880;50.302;18.736;2022-07-05T02:27:34;1.20;;;1.10;;
21438;SDS011;10880;50.302;18.736;2022-07-05T02:30:02;1.30;;;1.20;;
21438;SDS011;10880;50.302;18.736;2022-07-05T02:32:35;1.20;;;1.20;;
21438;SDS011;10880;50.302;18.736;2022-07-05T02:35:03;1.23;;;1.13;;
21438;SDS011;10880;50.302;18.736;2022-07-05T02:37:37;1.20;;;1.20;;
21438;SDS011;10880;50.302;18.736;2022-07-05T02:40:07;1.37;;;1.27;;
21438;SDS011;10880;50.302;18.736;2022-07-05T02:42:40;1.40;;;1.30;;
21438;SDS011;10880;50.302;18.736;2022-07-05T02:45:10;1.40;;;1.30;;
21438;SDS011;10880;50.302;18.736;2022-07-05T02:47:37;1.30;;;1.20;;
21438;SDS011;10880;50.302;18.736;2022-07-05T02:50:05;1.60;;;1.30;;
21438;SDS011;10880;50.302;18.736;2022-07-05T02:52:38;1.30;;;1.27;;
21438;SDS011;10880;50.302;18.736;2022-07-05T02:55:05;1.50;;;1.40;;
21438;SDS011;10880;50.302;18.736;2022-07-05T02:57:32;1.33;;;1.30;;
21438;SDS011;10880;50.302;18.736;2022-07-05T03:00:02;1.40;;;1.30;;
21438;SDS011;10880;50.302;18.736;2022-07-05T03:02:37;1.40;;;1.30;;
21438;SDS011;10880;50.302;18.736;2022-07-05T03:05:05;1.57;;;1.47;;
21438;SDS011;10880;50.302;18.736;2022-07-05T03:07:32;1.37;;;1.27;;
21438;SDS011;10880;50.302;18.736;2022-07-05T03:09:59;1.53;;;1.30;;
21438;SDS011;10880;50.302;18.736;2022-07-05T03:12:27;1.40;;;1.30;;
21438;SDS011;10880;50.302;18.736;2022-07-05T03:14:53;1.47;;;1.23;;
21438;SDS011;10880;50.302;18.736;2022-07-05T03:17:23;1.30;;;1.20;;
21438;SDS011;10880;50.302;18.736;2022-07-05T03:19:50;1.47;;;1.30;;
21438;SDS011;10880;50.302;18.736;2022-07-05T03:22:19;1.50;;;1.40;;
21438;SDS011;10880;50.302;18.736;2022-07-05T03:24:46;1.23;;;1.23;;
21438;SDS011;10880;50.302;18.736;2022-07-05T03:27:13;1.47;;;1.30;;
21438;SDS011;10880;50.302;18.736;2022-07-05T03:29:40;1.40;;;1.30;;
21438;SDS011;10880;50.302;18.736;2022-07-05T03:32:06;1.20;;;1.20;;
21438;SDS011;10880;50.302;18.736;2022-07-05T03:34:33;1.17;;;1.13;;
21438;SDS011;10880;50.302;18.736;2022-07-05T03:37:02;1.10;;;1.10;;
21438;SDS011;10880;50.302;18.736;2022-07-05T03:39:28;1.47;;;1.37;;
21438;SDS011;10880;50.302;18.736;2022-07-05T03:41:55;1.40;;;1.30;;
21438;SDS011;10880;50.302;18.736;2022-07-05T03:44:24;1.40;;;1.30;;
21438;SDS011;10880;50.302;18.736;2022-07-05T03:46:53;1.57;;;1.47;;
21438;SDS011;10880;50.302;18.736;2022-07-05T03:49:20;2.57;;;1.23;;
21438;SDS011;10880;50.302;18.736;2022-07-05T03:51:48;8.27;;;1.83;;
21438;SDS011;10880;50.302;18.736;2022-07-05T03:54:14;1.40;;;1.30;;
21438;SDS011;10880;50.302;18.736;2022-07-05T03:56:41;1.60;;;1.50;;
21438;SDS011;10880;50.302;18.736;2022-07-05T03:59:11;1.70;;;1.37;;
21438;SDS011;10880;50.302;18.736;2022-07-05T04:01:37;1.40;;;1.30;;
21438;SDS011;10880;50.302;18.736;2022-07-05T04:04:05;1.30;;;1.20;;
21438;SDS011;10880;50.302;18.736;2022-07-05T04:06:32;1.80;;;1.60;;
21438;SDS011;10880;50.302;18.736;2022-07-05T04:09:00;2.03;;;1.40;;
21438;SDS011;10880;50.302;18.736;2022-07-05T04:11:28;1.40;;;1.30;;
21438;SDS011;10880;50.302;18.736;2022-07-05T04:13:57;1.70;;;1.60;;
21438;SDS011;10880;50.302;18.736;2022-07-05T04:16:27;1.30;;;1.30;;
21438;SDS011;10880;50.302;18.736;2022-07-05T04:18:53;1.63;;;1.53;;
21438;SDS011;10880;50.302;18.736;2022-07-05T04:21:27;1.53;;;1.43;;
21438;SDS011;10880;50.302;18.736;2022-07-05T04:23:54;1.50;;;1.40;;
21438;SDS011;10880;50.302;18.736;2022-07-05T04:26:20;1.93;;;1.40;;
21438;SDS011;10880;50.302;18.736;2022-07-05T04:28:47;1.60;;;1.50;;
21438;SDS011;10880;50.302;18.736;2022-07-05T04:31:20;2.00;;;1.50;;
21438;SDS011;10880;50.302;18.736;2022-07-05T04:33:49;1.37;;;1.27;;
21438;SDS011;10880;50.302;18.736;2022-07-05T04:36:20;2.40;;;1.57;;
21438;SDS011;10880;50.302;18.736;2022-07-05T04:38:50;1.50;;;1.40;;
21438;SDS011;10880;50.302;18.736;2022-07-05T04:41:17;1.57;;;1.47;;
21438;SDS011;10880;50.302;18.736;2022-07-05T04:43:44;1.93;;;1.60;;
21438;SDS011;10880;50.302;18.736;2022-07-05T04:46:13;1.60;;;1.50;;
21438;SDS011;10880;50.302;18.736;2022-07-05T04:48:41;1.57;;;1.47;;
21438;SDS011;10880;50.302;18.736;2022-07-05T04:51:11;6.47;;;1.80;;
21438;SDS011;10880;50.302;18.736;2022-07-05T04:53:37;1.60;;;1.50;;
21438;SDS011;10880;50.302;18.736;2022-07-05T04:56:06;1.40;;;1.30;;
21438;SDS011;10880;50.302;18.736;2022-07-05T04:58:32;3.13;;;1.37;;
21438;SDS011;10880;50.302;18.736;2022-07-05T05:00:59;1.50;;;1.40;;
21438;SDS011;10880;50.302;18.736;2022-07-05T05:03:27;2.53;;;1.50;;
21438;SDS011;10880;50.302;18.736;2022-07-05T05:05:53;1.73;;;1.60;;
21438;SDS011;10880;50.302;18.736;2022-07-05T05:08:20;1.33;;;1.23;;
21438;SDS011;10880;50.302;18.736;2022-07-05T05:10:46;1.40;;;1.30;;
21438;SDS011;10880;50.302;18.736;2022-07-05T05:13:12;1.93;;;1.70;;
21438;SDS011;10880;50.302;18.736;2022-07-05T05:15:39;1.70;;;1.60;;
21438;SDS011;10880;50.302;18.736;2022-07-05T05:18:06;1.67;;;1.50;;
21438;SDS011;10880;50.302;18.736;2022-07-05T05:20:33;1.80;;;1.67;;
21438;SDS011;10880;50.302;18.736;2022-07-05T05:22:59;1.90;;;1.53;;
21438;SDS011;10880;50.302;18.736;2022-07-05T05:25:29;1.77;;;1.63;;
21438;SDS011;10880;50.302;18.736;2022-07-05T05:28:00;1.70;;;1.60;;
21438;SDS011;10880;50.302;18.736;2022-07-05T05:30:26;1.60;;;1.50;;
21438;SDS011;10880;50.302;18.736;2022-07-05T05:32:53;2.07;;;1.50;;
21438;SDS011;10880;50.302;18.736;2022-07-05T05:35:22;1.60;;;1.50;;
21438;SDS011;10880;50.302;18.736;2022-07-05T05:37:50;1.70;;;1.60;;
21438;SDS011;10880;50.302;18.736;2022-07-05T05:40:21;1.50;;;1.40;;
21438;SDS011;10880;50.302;18.736;2022-07-05T05:42:51;1.73;;;1.63;;
21438;SDS011;10880;50.302;18.736;2022-07-05T05:45:19;1.70;;;1.60;;
21438;SDS011;10880;50.302;18.736;2022-07-05T05:47:47;1.80;;;1.70;;
21438;SDS011;10880;50.302;18.736;2022-07-05T05:50:25;1.50;;;1.40;;
21438;SDS011;10880;50.302;18.736;2022-07-05T05:52:56;1.70;;;1.60;;
21438;SDS011;10880;50.302;18.736;2022-07-05T05:55:25;1.70;;;1.60;;
21438;SDS011;10880;50.302;18.736;2022-07-05T05:57:54;1.60;;;1.50;;
21438;SDS011;10880;50.302;18.736;2022-07-05T06:00:22;2.60;;;1.47;;
21438;SDS011;10880;50.302;18.736;2022-07-05T06:02:50;1.70;;;1.40;;
21438;SDS011;10880;50.302;18.736;2022-07-05T06:05:17;1.77;;;1.40;;
21438;SDS011;10880;50.302;18.736;2022-07-05T06:10:14;1.50;;;1.40;;
21438;SDS011;10880;50.302;18.736;2022-07-05T06:12:47;3.70;;;1.57;;
21438;SDS011;10880;50.302;18.736;2022-07-05T06:15:24;1.70;;;1.60;;
21438;SDS011;10880;50.302;18.736;2022-07-05T06:17:52;2.03;;;1.50;;
21438;SDS011;10880;50.302;18.736;2022-07-05T06:20:20;1.60;;;1.50;;
21438;SDS011;10880;50.302;18.736;2022-07-05T06:22:50;1.90;;;1.80;;
21438;SDS011;10880;50.302;18.736;2022-07-05T06:25:17;2.03;;;1.70;;
21438;SDS011;10880;50.302;18.736;2022-07-05T06:27:45;1.60;;;1.50;;
21438;SDS011;10880;50.302;18.736;2022-07-05T06:30:15;1.77;;;1.53;;
21438;SDS011;10880;50.302;18.736;2022-07-05T06:32:48;1.90;;;1.60;;
21438;SDS011;10880;50.302;18.736;2022-07-05T06:35:16;3.70;;;2.10;;
21438;SDS011;10880;50.302;18.736;2022-07-05T06:37:44;2.10;;;1.90;;
21438;SDS011;10880;50.302;18.736;2022-07-05T06:40:18;1.77;;;1.63;;
21438;SDS011;10880;50.302;18.736;2022-07-05T06:42:49;1.80;;;1.70;;
21438;SDS011;10880;50.302;18.736;2022-07-05T06:45:22;1.80;;;1.70;;
21438;SDS011;10880;50.302;18.736;2022-07-05T06:47:55;2.23;;;2.03;;
21438;SDS011;10880;50.302;18.736;2022-07-05T06:50:28;2.63;;;2.30;;
21438;SDS011;10880;50.302;18.736;2022-07-05T06:52:57;2.20;;;2.00;;
21438;SDS011;10880;50.302;18.736;2022-07-05T06:55:29;2.73;;;2.50;;
21438;SDS011;10880;50.302;18.736;2022-07-05T06:58:01;3.20;;;2.10;;
21438;SDS011;10880;50.302;18.736;2022-07-05T07:00:32;3.27;;;2.50;;
21438;SDS011;10880;50.302;18.736;2022-07-05T07:03:00;3.23;;;2.50;;
21438;SDS011;10880;50.302;18.736;2022-07-05T07:05:27;2.20;;;2.10;;
21438;SDS011;10880;50.302;18.736;2022-07-05T07:07:55;2.33;;;2.13;;
21438;SDS011;10880;50.302;18.736;2022-07-05T07:10:40;2.30;;;2.10;;
21438;SDS011;10880;50.302;18.736;2022-07-05T07:13:07;2.93;;;2.50;;
21438;SDS011;10880;50.302;18.736;2022-07-05T07:15:33;2.50;;;2.30;;
21438;SDS011;10880;50.302;18.736;2022-07-05T07:18:02;2.50;;;2.30;;
21438;SDS011;10880;50.302;18.736;2022-07-05T07:20:38;2.03;;;1.90;;
21438;SDS011;10880;50.302;18.736;2022-07-05T07:23:06;2.40;;;2.20;;
21438;SDS011;10880;50.302;18.736;2022-07-05T07:25:36;2.07;;;1.93;;
21438;SDS011;10880;50.302;18.736;2022-07-05T07:28:02;3.27;;;2.07;;
21438;SDS011;10880;50.302;18.736;2022-07-05T07:30:31;1.87;;;1.77;;
21438;SDS011;10880;50.302;18.736;2022-07-05T07:32:57;2.10;;;1.90;;
21438;SDS011;10880;50.302;18.736;2022-07-05T07:35:25;1.93;;;1.80;;
21438;SDS011;10880;50.302;18.736;2022-07-05T07:37:51;1.97;;;1.87;;
21438;SDS011;10880;50.302;18.736;2022-07-05T07:40:17;2.17;;;1.97;;
21438;SDS011;10880;50.302;18.736;2022-07-05T07:42:44;2.20;;;2.00;;
21438;SDS011;10880;50.302;18.736;2022-07-05T07:45:10;2.30;;;2.10;;
21438;SDS011;10880;50.302;18.736;2022-07-05T07:47:37;2.47;;;2.27;;
21438;SDS011;10880;50.302;18.736;2022-07-05T07:50:08;2.47;;;2.13;;
21438;SDS011;10880;50.302;18.736;2022-07-05T07:52:35;2.23;;;2.10;;
21438;SDS011;10880;50.302;18.736;2022-07-05T07:55:03;2.03;;;1.83;;
21438;SDS011;10880;50.302;18.736;2022-07-05T07:57:42;2.07;;;1.87;;
21438;SDS011;10880;50.302;18.736;2022-07-05T08:00:09;2.07;;;1.97;;
21438;SDS011;10880;50.302;18.736;2022-07-05T08:02:39;2.30;;;2.10;;
21438;SDS011;10880;50.302;18.736;2022-07-05T08:05:06;2.20;;;1.97;;
21438;SDS011;10880;50.302;18.736;2022-07-05T08:07:35;2.60;;;2.40;;
21438;SDS011;10880;50.302;18.736;2022-07-05T08:10:05;2.37;;;2.17;;
21438;SDS011;10880;50.302;18.736;2022-07-05T08:12:33;2.70;;;2.50;;
21438;SDS011;10880;50.302;18.736;2022-07-05T08:15:00;3.27;;;2.70;;
21438;SDS011;10880;50.302;18.736;2022-07-05T08:17:27;2.73;;;2.53;;
21438;SDS011;10880;50.302;18.736;2022-07-05T08:19:53;2.47;;;2.27;;
21438;SDS011;10880;50.302;18.736;2022-07-05T08:22:38;2.57;;;2.30;;
21438;SDS011;10880;50.302;18.736;2022-07-05T08:25:05;3.00;;;2.23;;
21438;SDS011;10880;50.302;18.736;2022-07-05T08:27:35;2.53;;;2.33;;
21438;SDS011;10880;50.302;18.736;2022-07-05T08:30:02;2.43;;;2.23;;
21438;SDS011;10880;50.302;18.736;2022-07-05T08:32:29;2.33;;;2.13;;
21438;SDS011;10880;50.302;18.736;2022-07-05T08:34:56;2.67;;;2.47;;
21438;SDS011;10880;50.302;18.736;2022-07-05T08:37:22;2.50;;;2.30;;
21438;SDS011;10880;50.302;18.736;2022-07-05T08:39:49;2.57;;;2.27;;
21438;SDS011;10880;50.302;18.736;2022-07-05T08:42:15;2.47;;;2.17;;
21438;SDS011;10880;50.302;18.736;2022-07-05T08:44:43;2.83;;;2.40;;
21438;SDS011;10880;50.302;18.736;2022-07-05T08:47:12;2.13;;;1.97;;
21438;SDS011;10880;50.302;18.736;2022-07-05T08:49:40;2.67;;;2.47;;
21438;SDS011;10880;50.302;18.736;2022-07-05T08:52:10;2.50;;;2.17;;
21438;SDS011;10880;50.302;18.736;2022-07-05T08:54:38;3.23;;;2.20;;
21438;SDS011;10880;50.302;18.736;2022-07-05T08:57:05;2.37;;;2.20;;
21438;SDS011;10880;50.302;18.736;2022-07-05T08:59:34;2.63;;;2.43;;
21438;SDS011;10880;50.302;18.736;2022-07-05T09:02:01;2.60;;;2.40;;
21438;SDS011;10880;50.302;18.736;2022-07-05T09:04:30;2.23;;;2.03;;
21438;SDS011;10880;50.302;18.736;2022-07-05T09:07:03;2.60;;;2.40;;
21438;SDS011;10880;50.302;18.736;2022-07-05T09:09:34;2.70;;;2.20;;
21438;SDS011;10880;50.302;18.736;2022-07-05T09:12:11;2.00;;;1.90;;
21438;SDS011;10880;50.302;18.736;2022-07-05T09:14:41;2.30;;;2.10;;
21438;SDS011;10880;50.302;18.736;2022-07-05T09:17:07;2.00;;;1.90;;
21438;SDS011;10880;50.302;18.736;2022-07-05T09:19:34;2.20;;;2.00;;
21438;SDS011;10880;50.302;18.736;2022-07-05T09:22:03;1.93;;;1.83;;
21438;SDS011;10880;50.302;18.736;2022-07-05T09:24:44;1.97;;;1.87;;
21438;SDS011;10880;50.302;18.736;2022-07-05T09:27:12;2.00;;;1.90;;
21438;SDS011;10880;50.302;18.736;2022-07-05T09:29:39;2.30;;;2.10;;
21438;SDS011;10880;50.302;18.736;2022-07-05T09:32:25;2.60;;;2.40;;
21438;SDS011;10880;50.302;18.736;2022-07-05T09:34:51;2.77;;;2.20;;
21438;SDS011;10880;50.302;18.736;2022-07-05T09:37:18;2.37;;;2.17;;
21438;SDS011;10880;50.302;18.736;2022-07-05T09:39:45;1.80;;;1.70;;
21438;SDS011;10880;50.302;18.736;2022-07-05T09:42:21;2.10;;;1.90;;
21438;SDS011;10880;50.302;18.736;2022-07-05T09:44:56;2.40;;;2.20;;
21438;SDS011;10880;50.302;18.736;2022-07-05T09:47:24;2.13;;;1.93;;
21438;SDS011;10880;50.302;18.736;2022-07-05T09:49:53;2.40;;;2.20;;
21438;SDS011;10880;50.302;18.736;2022-07-05T09:52:38;2.20;;;2.00;;
21438;SDS011;10880;50.302;18.736;2022-07-05T09:55:10;2.80;;;2.00;;
21438;SDS011;10880;50.302;18.736;2022-07-05T09:57:46;2.20;;;2.03;;
21438;SDS011;10880;50.302;18.736;2022-07-05T10:00:14;3.27;;;2.40;;
21438;SDS011;10880;50.302;18.736;2022-07-05T10:02:46;2.23;;;2.10;;
21438;SDS011;10880;50.302;18.736;2022-07-05T10:05:22;2.43;;;2.23;;
21438;SDS011;10880;50.302;18.736;2022-07-05T10:07:52;2.47;;;2.27;;
21438;SDS011;10880;50.302;18.736;2022-07-05T10:10:22;2.40;;;2.20;;
21438;SDS011;10880;50.302;18.736;2022-07-05T10:12:58;2.37;;;2.17;;
21438;SDS011;10880;50.302;18.736;2022-07-05T10:15:32;2.43;;;2.23;;
21438;SDS011;10880;50.302;18.736;2022-07-05T10:20:34;2.40;;;2.20;;
21438;SDS011;10880;50.302;18.736;2022-07-05T10:23:07;2.40;;;2.20;;
21438;SDS011;10880;50.302;18.736;2022-07-05T10:25:38;2.40;;;2.20;;
21438;SDS011;10880;50.302;18.736;2022-07-05T10:28:07;2.20;;;2.10;;
21438;SDS011;10880;50.302;18.736;2022-07-05T10:30:34;2.37;;;2.17;;
21438;SDS011;10880;50.302;18.736;2022-07-05T10:33:03;2.50;;;2.30;;
21438;SDS011;10880;50.302;18.736;2022-07-05T10:35:34;2.60;;;2.40;;
21438;SDS011;10880;50.302;18.736;2022-07-05T10:38:02;2.80;;;2.57;;
21438;SDS011;10880;50.302;18.736;2022-07-05T10:40:33;2.60;;;2.40;;
21438;SDS011;10880;50.302;18.736;2022-07-05T10:43:01;2.80;;;2.60;;
21438;SDS011;10880;50.302;18.736;2022-07-05T10:45:34;2.63;;;2.40;;
21438;SDS011;10880;50.302;18.736;2022-07-05T10:48:20;2.80;;;2.60;;
21438;SDS011;10880;50.302;18.736;2022-07-05T10:50:52;2.77;;;2.57;;
21438;SDS011;10880;50.302;18.736;2022-07-05T10:56:15;2.90;;;2.70;;
21438;SDS011;10880;50.302;18.736;2022-07-05T10:58:45;3.10;;;2.90;;
21438;SDS011;10880;50.302;18.736;2022-07-05T11:03:47;3.40;;;3.10;;
21438;SDS011;10880;50.302;18.736;2022-07-05T11:06:22;3.23;;;2.90;;
21438;SDS011;10880;50.302;18.736;2022-07-05T11:11:33;2.83;;;2.63;;
21438;SDS011;10880;50.302;18.736;2022-07-05T11:16:48;3.30;;;2.97;;
21438;SDS011;10880;50.302;18.736;2022-07-05T11:22:24;3.20;;;2.90;;
21438;SDS011;10880;50.302;18.736;2022-07-05T11:24:52;3.30;;;3.00;;
21438;SDS011;10880;50.302;18.736;2022-07-05T11:27:24;3.13;;;2.93;;
21438;SDS011;10880;50.302;18.736;2022-07-05T11:32:20;3.53;;;3.23;;
21438;SDS011;10880;50.302;18.736;2022-07-05T11:34:51;3.40;;;3.10;;
21438;SDS011;10880;50.302;18.736;2022-07-05T11:37:26;3.47;;;3.17;;
21438;SDS011;10880;50.302;18.736;2022-07-05T11:42:48;3.13;;;2.93;;
21438;SDS011;10880;50.302;18.736;2022-07-05T11:45:16;3.47;;;3.17;;
21438;SDS011;10880;50.302;18.736;2022-07-05T11:47:43;3.33;;;3.03;;
21438;SDS011;10880;50.302;18.736;2022-07-05T11:50:10;3.27;;;2.97;;
21438;SDS011;10880;50.302;18.736;2022-07-05T11:52:38;3.30;;;2.93;;
21438;SDS011;10880;50.302;18.736;2022-07-05T11:55:19;3.50;;;3.20;;
21438;SDS011;10880;50.302;18.736;2022-07-05T11:57:50;3.77;;;3.47;;
21438;SDS011;10880;50.302;18.736;2022-07-05T12:00:25;3.30;;;3.07;;
21438;SDS011;10880;50.302;18.736;2022-07-05T12:02:59;3.00;;;2.80;;
21438;SDS011;10880;50.302;18.736;2022-07-05T12:05:30;3.17;;;2.87;;
21438;SDS011;10880;50.302;18.736;2022-07-05T12:08:05;3.23;;;2.93;;
21438;SDS011;10880;50.302;18.736;2022-07-05T12:10:31;3.00;;;2.70;;
21438;SDS011;10880;50.302;18.736;2022-07-05T12:13:17;3.30;;;2.97;;
21438;SDS011;10880;50.302;18.736;2022-07-05T12:15:43;3.40;;;3.10;;
21438;SDS011;10880;50.302;18.736;2022-07-05T12:18:13;3.23;;;2.97;;
21438;SDS011;10880;50.302;18.736;2022-07-05T12:20:41;3.23;;;3.00;;
21438;SDS011;10880;50.302;18.736;2022-07-05T12:23:07;5.67;;;2.93;;
21438;SDS011;10880;50.302;18.736;2022-07-05T12:25:34;2.73;;;2.53;;
21438;SDS011;10880;50.302;18.736;2022-07-05T12:28:02;2.67;;;2.47;;
21438;SDS011;10880;50.302;18.736;2022-07-05T12:30:33;2.60;;;2.40;;
21438;SDS011;10880;50.302;18.736;2022-07-05T12:33:01;2.23;;;2.07;;
21438;SDS011;10880;50.302;18.736;2022-07-05T12:35:46;2.30;;;2.20;;
21438;SDS011;10880;50.302;18.736;2022-07-05T12:38:18;2.40;;;2.20;;
21438;SDS011;10880;50.302;18.736;2022-07-05T12:40:57;2.03;;;1.93;;
21438;SDS011;10880;50.302;18.736;2022-07-05T12:43:26;2.17;;;2.07;;
21438;SDS011;10880;50.302;18.736;2022-07-05T12:46:00;2.07;;;1.97;;
21438;SDS011;10880;50.302;18.736;2022-07-05T12:48:32;1.97;;;1.87;;
21438;SDS011;10880;50.302;18.736;2022-07-05T12:51:03;2.10;;;1.90;;
21438;SDS011;10880;50.302;18.736;2022-07-05T12:53:43;2.23;;;1.80;;
21438;SDS011;10880;50.302;18.736;2022-07-05T12:56:29;1.70;;;1.60;;
21438;SDS011;10880;50.302;18.736;2022-07-05T12:59:15;2.03;;;1.83;;
21438;SDS011;10880;50.302;18.736;2022-07-05T13:01:43;2.07;;;1.97;;
21438;SDS011;10880;50.302;18.736;2022-07-05T13:04:11;1.87;;;1.77;;
21438;SDS011;10880;50.302;18.736;2022-07-05T13:06:47;1.83;;;1.73;;
21438;SDS011;10880;50.302;18.736;2022-07-05T13:14:48;1.83;;;1.73;;
21438;SDS011;10880;50.302;18.736;2022-07-05T13:17:17;2.07;;;1.80;;
21438;SDS011;10880;50.302;18.736;2022-07-05T13:19:48;2.00;;;1.83;;
21438;SDS011;10880;50.302;18.736;2022-07-05T13:22:15;2.13;;;1.93;;
21438;SDS011;10880;50.302;18.736;2022-07-05T13:24:43;2.40;;;2.20;;
21438;SDS011;10880;50.302;18.736;2022-07-05T13:27:11;2.13;;;2.03;;
21438;SDS011;10880;50.302;18.736;2022-07-05T13:29:41;2.07;;;1.90;;
21438;SDS011;10880;50.302;18.736;2022-07-05T13:32:07;2.03;;;1.93;;
21438;SDS011;10880;50.302;18.736;2022-07-05T13:34:36;1.97;;;1.87;;
21438;SDS011;10880;50.302;18.736;2022-07-05T13:37:02;2.27;;;2.07;;
21438;SDS011;10880;50.302;18.736;2022-07-05T13:39:30;2.30;;;2.10;;
21438;SDS011;10880;50.302;18.736;2022-07-05T13:41:57;2.03;;;1.93;;
21438;SDS011;10880;50.302;18.736;2022-07-05T13:44:28;2.33;;;2.13;;
21438;SDS011;10880;50.302;18.736;2022-07-05T13:46:54;2.20;;;2.00;;
21438;SDS011;10880;50.302;18.736;2022-07-05T13:49:20;2.30;;;2.10;;
21438;SDS011;10880;50.302;18.736;2022-07-05T13:51:49;2.90;;;2.20;;
21438;SDS011;10880;50.302;18.736;2022-07-05T13:54:16;2.23;;;2.03;;
21438;SDS011;10880;50.302;18.736;2022-07-05T13:56:43;1.93;;;1.83;;
21438;SDS011;10880;50.302;18.736;2022-07-05T13:59:09;2.27;;;2.17;;
21438;SDS011;10880;50.302;18.736;2022-07-05T14:01:35;2.37;;;2.17;;
21438;SDS011;10880;50.302;18.736;2022-07-05T14:04:02;2.07;;;1.97;;
21438;SDS011;10880;50.302;18.736;2022-07-05T14:06:30;2.20;;;2.00;;
21438;SDS011;10880;50.302;18.736;2022-07-05T14:09:01;2.00;;;1.90;;
21438;SDS011;10880;50.302;18.736;2022-07-05T14:11:28;3.92;;;3.63;;
21438;SDS011;10880;50.302;18.736;2022-07-05T14:13:58;2.63;;;2.43;;
21438;SDS011;10880;50.302;18.736;2022-07-05T14:16:27;2.30;;;2.10;;
21438;SDS011;10880;50.302;18.736;2022-07-05T14:18:55;2.13;;;2.03;;
21438;SDS011;10880;50.302;18.736;2022-07-05T14:21:22;2.17;;;2.07;;
21438;SDS011;10880;50.302;18.736;2022-07-05T14:23:49;2.37;;;2.17;;
21438;SDS011;10880;50.302;18.736;2022-07-05T14:26:16;2.13;;;2.00;;
21438;SDS011;10880;50.302;18.736;2022-07-05T14:28:43;2.37;;;2.17;;
21438;SDS011;10880;50.302;18.736;2022-07-05T14:31:09;2.07;;;1.97;;
21438;SDS011;10880;50.302;18.736;2022-07-05T14:33:45;1.90;;;1.80;;
21438;SDS011;10880;50.302;18.736;2022-07-05T14:36:12;1.90;;;1.80;;
21438;SDS011;10880;50.302;18.736;2022-07-05T14:38:38;1.80;;;1.70;;
21438;SDS011;10880;50.302;18.736;2022-07-05T14:41:04;1.60;;;1.50;;
21438;SDS011;10880;50.302;18.736;2022-07-05T14:43:31;1.60;;;1.50;;
21438;SDS011;10880;50.302;18.736;2022-07-05T14:45:57;1.70;;;1.60;;
21438;SDS011;10880;50.302;18.736;2022-07-05T14:48:23;1.57;;;1.47;;
21438;SDS011;10880;50.302;18.736;2022-07-05T14:50:50;1.60;;;1.50;;
21438;SDS011;10880;50.302;18.736;2022-07-05T14:53:16;1.50;;;1.40;;
21438;SDS011;10880;50.302;18.736;2022-07-05T14:55:44;1.57;;;1.47;;
21438;SDS011;10880;50.302;18.736;2022-07-05T14:58:11;1.80;;;1.70;;
21438;SDS011;10880;50.302;18.736;2022-07-05T15:00:37;1.63;;;1.53;;
21438;SDS011;10880;50.302;18.736;2022-07-05T15:03:03;1.57;;;1.47;;
21438;SDS011;10880;50.302;18.736;2022-07-05T15:05:32;1.60;;;1.50;;
21438;SDS011;10880;50.302;18.736;2022-07-05T15:07:58;1.80;;;1.70;;
21438;SDS011;10880;50.302;18.736;2022-07-05T15:10:27;1.87;;;1.77;;
21438;SDS011;10880;50.302;18.736;2022-07-05T15:12:54;1.67;;;1.57;;
21438;SDS011;10880;50.302;18.736;2022-07-05T15:15:21;1.70;;;1.60;;